sensor_id;sensor_type;location;lat;lon;timestamp;pressure;altitude;pressure_sealevel;temperature;humidity
75420;BME280;63998;52.488;13.428;2023-02-15T00:01:34;102702.50;;;5.95;72.88
75420;BME280;63998;52.488;13.428;2023-02-15T00:04:00;102707.88;;;5.83;71.13
75420;BME280;63998;52.488;13.428;2023-02-15T00:06:26;102707.38;;;5.58;70.18
75420;BME280;63998;52.488;13.428;2023-02-15T00:08:54;102706.19;;;5.51;70.96
75420;BME280;63998;52.488;13.428;2023-02-15T00:11:20;102712.03;;;5.49;70.91
75420;BME280;63998;52.488;13.428;2023-02-15T00:14:09;102707.88;;;5.51;70.83
75420;BME280;63998;52.488;13.428;2023-02-15T00:16:35;102708.78;;;5.67;71.76
75420;BME280;63998;52.488;13.428;2023-02-15T00:19:04;102708.22;;;5.73;71.83
75420;BME280;63998;52.488;13.428;2023-02-15T00:21:33;102701.41;;;5.90;74.00
75420;BME280;63998;52.488;13.428;2023-02-15T00:24:00;102692.28;;;5.96;73.91
75420;BME280;63998;52.488;13.428;2023-02-15T00:26:26;102689.59;;;6.11;74.10
75420;BME280;63998;52.488;13.428;2023-02-15T00:28:52;102689.69;;;6.12;74.28
75420;BME280;63998;52.488;13.428;2023-02-15T00:31:18;102686.94;;;6.09;73.21
75420;BME280;63998;52.488;13.428;2023-02-15T00:33:43;102687.41;;;6.19;73.83
75420;BME280;63998;52.488;13.428;2023-02-15T00:36:13;102689.69;;;6.12;71.59
75420;BME280;63998;52.488;13.428;2023-02-15T00:38:43;102677.94;;;6.18;72.93
75420;BME280;63998;52.488;13.428;2023-02-15T00:41:11;102682.75;;;6.11;72.08
75420;BME280;63998;52.488;13.428;2023-02-15T00:43:37;102684.19;;;6.06;72.28
75420;BME280;63998;52.488;13.428;2023-02-15T00:46:03;102681.97;;;5.96;70.35
75420;BME280;63998;52.488;13.428;2023-02-15T00:48:29;102674.72;;;5.89;71.03
75420;BME280;63998;52.488;13.428;2023-02-15T00:50:57;102682.25;;;5.86;71.34
75420;BME280;63998;52.488;13.428;2023-02-15T00:53:23;102682.63;;;5.92;72.14
75420;BME280;63998;52.488;13.428;2023-02-15T00:55:52;102686.09;;;5.93;72.48
75420;BME280;63998;52.488;13.428;2023-02-15T00:58:17;102681.66;;;5.90;71.72
75420;BME280;63998;52.488;13.428;2023-02-15T01:00:45;102679.88;;;5.89;71.17
75420;BME280;63998;52.488;13.428;2023-02-15T01:03:12;102669.69;;;5.76;71.21
75420;BME280;63998;52.488;13.428;2023-02-15T01:05:37;102671.38;;;5.75;71.83
75420;BME280;63998;52.488;13.428;2023-02-15T01:08:03;102672.09;;;5.73;72.45
75420;BME280;63998;52.488;13.428;2023-02-15T01:10:31;102665.00;;;5.69;71.78
75420;BME280;63998;52.488;13.428;2023-02-15T01:12:58;102668.44;;;5.68;71.95
75420;BME280;63998;52.488;13.428;2023-02-15T01:15:24;102669.19;;;5.83;72.89
75420;BME280;63998;52.488;13.428;2023-02-15T01:17:49;102660.66;;;5.84;73.49
75420;BME280;63998;52.488;13.428;2023-02-15T01:20:25;102660.50;;;5.81;72.26
75420;BME280;63998;52.488;13.428;2023-02-15T01:22:51;102649.72;;;5.72;71.29
75420;BME280;63998;52.488;13.428;2023-02-15T01:25:18;102653.00;;;5.69;71.53
75420;BME280;63998;52.488;13.428;2023-02-15T01:27:44;102653.25;;;5.74;73.16
75420;BME280;63998;52.488;13.428;2023-02-15T01:30:10;102643.66;;;5.71;72.21
75420;BME280;63998;52.488;13.428;2023-02-15T01:32:38;102647.38;;;5.76;72.88
75420;BME280;63998;52.488;13.428;2023-02-15T01:35:04;102635.53;;;5.64;72.31
75420;BME280;63998;52.488;13.428;2023-02-15T01:37:33;102638.22;;;5.65;72.28
75420;BME280;63998;52.488;13.428;2023-02-15T01:40:00;102636.59;;;5.67;73.67
75420;BME280;63998;52.488;13.428;2023-02-15T01:42:29;102626.22;;;5.66;73.01
75420;BME280;63998;52.488;13.428;2023-02-15T01:45:04;102630.22;;;5.61;72.42
75420;BME280;63998;52.488;13.428;2023-02-15T01:47:44;102621.53;;;5.59;72.74
75420;BME280;63998;52.488;13.428;2023-02-15T01:50:20;102620.31;;;5.52;72.47
75420;BME280;63998;52.488;13.428;2023-02-15T01:52:57;102615.47;;;5.58;73.39
75420;BME280;63998;52.488;13.428;2023-02-15T01:55:28;102611.97;;;5.56;72.84
75420;BME280;63998;52.488;13.428;2023-02-15T01:57:55;102611.06;;;5.56;72.69
75420;BME280;63998;52.488;13.428;2023-02-15T02:00:21;102600.75;;;5.56;74.11
75420;BME280;63998;52.488;13.428;2023-02-15T02:02:50;102607.53;;;5.54;73.91
75420;BME280;63998;52.488;13.428;2023-02-15T02:05:20;102603.81;;;5.49;73.22
75420;BME280;63998;52.488;13.428;2023-02-15T02:07:46;102605.59;;;5.50;74.30
75420;BME280;63998;52.488;13.428;2023-02-15T02:10:18;102597.22;;;5.37;73.03
75420;BME280;63998;52.488;13.428;2023-02-15T02:12:48;102601.56;;;5.38;72.92
75420;BME280;63998;52.488;13.428;2023-02-15T02:15:17;102598.91;;;5.37;73.61
75420;BME280;63998;52.488;13.428;2023-02-15T02:18:27;102591.09;;;5.35;73.56
75420;BME280;63998;52.488;13.428;2023-02-15T02:27:39;102583.81;;;5.12;73.33
75420;BME280;63998;52.488;13.428;2023-02-15T02:30:48;102587.47;;;5.16;72.99
75420;BME280;63998;52.488;13.428;2023-02-15T02:33:57;102588.19;;;5.13;73.82
75420;BME280;63998;52.488;13.428;2023-02-15T02:39:32;102573.03;;;5.03;74.28
75420;BME280;63998;52.488;13.428;2023-02-15T02:44:46;102563.06;;;4.93;74.27
75420;BME280;63998;52.488;13.428;2023-02-15T02:49:45;102569.47;;;4.85;73.79
75420;BME280;63998;52.488;13.428;2023-02-15T02:52:42;102562.44;;;4.82;74.20
75420;BME280;63998;52.488;13.428;2023-02-15T02:58:02;102560.44;;;4.77;74.18
75420;BME280;63998;52.488;13.428;2023-02-15T03:00:37;102564.16;;;4.82;75.01
75420;BME280;63998;52.488;13.428;2023-02-15T03:03:10;102557.16;;;4.79;74.58
75420;BME280;63998;52.488;13.428;2023-02-15T03:05:40;102556.09;;;4.76;74.39
75420;BME280;63998;52.488;13.428;2023-02-15T03:08:07;102554.81;;;4.67;73.26
75420;BME280;63998;52.488;13.428;2023-02-15T03:10:37;102554.81;;;4.67;73.88
75420;BME280;63998;52.488;13.428;2023-02-15T03:13:04;102544.25;;;4.63;73.62
75420;BME280;63998;52.488;13.428;2023-02-15T03:15:34;102549.47;;;4.64;74.32
75420;BME280;63998;52.488;13.428;2023-02-15T03:18:46;102546.59;;;4.75;75.96
75420;BME280;63998;52.488;13.428;2023-02-15T03:21:19;102556.41;;;4.65;74.78
75420;BME280;63998;52.488;13.428;2023-02-15T03:23:51;102545.59;;;4.56;74.25
75420;BME280;63998;52.488;13.428;2023-02-15T03:26:18;102547.38;;;4.57;74.87
75420;BME280;63998;52.488;13.428;2023-02-15T03:28:50;102536.19;;;4.57;74.71
75420;BME280;63998;52.488;13.428;2023-02-15T03:31:20;102545.59;;;4.56;75.60
75420;BME280;63998;52.488;13.428;2023-02-15T03:34:02;102549.25;;;4.45;73.87
75420;BME280;63998;52.488;13.428;2023-02-15T03:36:52;102539.78;;;4.44;74.11
75420;BME280;63998;52.488;13.428;2023-02-15T03:39:34;102540.22;;;4.37;74.37
75420;BME280;63998;52.488;13.428;2023-02-15T03:42:21;102541.78;;;4.19;72.52
75420;BME280;63998;52.488;13.428;2023-02-15T03:45:08;102540.28;;;4.08;73.08
75420;BME280;63998;52.488;13.428;2023-02-15T03:47:43;102536.28;;;3.98;74.46
75420;BME280;63998;52.488;13.428;2023-02-15T03:50:17;102537.03;;;3.95;74.27
75420;BME280;63998;52.488;13.428;2023-02-15T03:53:05;102527.63;;;3.81;73.87
75420;BME280;63998;52.488;13.428;2023-02-15T03:55:33;102523.34;;;3.67;73.19
75420;BME280;63998;52.488;13.428;2023-02-15T03:57:59;102520.16;;;3.56;73.13
75420;BME280;63998;52.488;13.428;2023-02-15T04:00:54;102519.44;;;3.44;73.50
75420;BME280;63998;52.488;13.428;2023-02-15T04:03:43;102517.81;;;3.46;74.33
75420;BME280;63998;52.488;13.428;2023-02-15T04:06:10;102520.06;;;3.55;74.42
75420;BME280;63998;52.488;13.428;2023-02-15T04:08:35;102530.25;;;3.53;75.04
75420;BME280;63998;52.488;13.428;2023-02-15T04:11:19;102526.19;;;3.57;74.22
75420;BME280;63998;52.488;13.428;2023-02-15T04:13:45;102521.22;;;3.60;74.95
75420;BME280;63998;52.488;13.428;2023-02-15T04:16:10;102517.84;;;3.61;75.67
75420;BME280;63998;52.488;13.428;2023-02-15T04:18:40;102515.00;;;3.71;76.27
75420;BME280;63998;52.488;13.428;2023-02-15T04:21:29;102514.31;;;3.74;75.80
75420;BME280;63998;52.488;13.428;2023-02-15T04:24:13;102505.72;;;3.73;75.44
75420;BME280;63998;52.488;13.428;2023-02-15T04:27:01;102504.72;;;3.71;75.40
75420;BME280;63998;52.488;13.428;2023-02-15T04:29:31;102508.63;;;3.65;74.49
75420;BME280;63998;52.488;13.428;2023-02-15T04:31:58;102501.28;;;3.56;74.18
75420;BME280;63998;52.488;13.428;2023-02-15T04:34:24;102504.00;;;3.59;75.42
75420;BME280;63998;52.488;13.428;2023-02-15T04:36:52;102504.00;;;3.59;74.68
75420;BME280;63998;52.488;13.428;2023-02-15T04:39:18;102502.59;;;3.49;74.06
75420;BME280;63998;52.488;13.428;2023-02-15T04:41:48;102499.53;;;3.55;73.98
75420;BME280;63998;52.488;13.428;2023-02-15T04:44:16;102494.81;;;3.48;73.87
75420;BME280;63998;52.488;13.428;2023-02-15T04:46:41;102495.00;;;3.51;74.04
75420;BME280;63998;52.488;13.428;2023-02-15T04:49:09;102491.09;;;3.43;73.34
75420;BME280;63998;52.488;13.428;2023-02-15T04:51:35;102491.63;;;3.52;73.95
75420;BME280;63998;52.488;13.428;2023-02-15T04:54:00;102483.56;;;3.46;74.33
75420;BME280;63998;52.488;13.428;2023-02-15T04:56:27;102476.41;;;3.55;75.12
75420;BME280;63998;52.488;13.428;2023-02-15T04:58:55;102470.75;;;3.46;74.65
75420;BME280;63998;52.488;13.428;2023-02-15T05:01:20;102466.81;;;3.38;73.42
75420;BME280;63998;52.488;13.428;2023-02-15T05:03:45;102461.50;;;3.35;73.96
75420;BME280;63998;52.488;13.428;2023-02-15T05:06:11;102460.75;;;3.22;73.26
75420;BME280;63998;52.488;13.428;2023-02-15T05:08:38;102457.91;;;3.03;73.08
75420;BME280;63998;52.488;13.428;2023-02-15T05:11:04;102450.28;;;2.90;72.93
75420;BME280;63998;52.488;13.428;2023-02-15T05:13:31;102452.94;;;2.92;73.63
75420;BME280;63998;52.488;13.428;2023-02-15T05:15:56;102449.94;;;2.99;74.56
75420;BME280;63998;52.488;13.428;2023-02-15T05:18:22;102445.69;;;2.99;75.21
75420;BME280;63998;52.488;13.428;2023-02-15T05:20:48;102447.66;;;3.03;74.81
75420;BME280;63998;52.488;13.428;2023-02-15T05:23:14;102447.66;;;3.03;74.97
75420;BME280;63998;52.488;13.428;2023-02-15T05:25:46;102457.47;;;3.10;75.17
75420;BME280;63998;52.488;13.428;2023-02-15T05:28:31;102453.38;;;2.99;74.93
75420;BME280;63998;52.488;13.428;2023-02-15T05:33:27;102438.25;;;3.04;75.11
75420;BME280;63998;52.488;13.428;2023-02-15T05:35:55;102440.06;;;2.77;74.06
75420;BME280;63998;52.488;13.428;2023-02-15T05:38:20;102444.88;;;2.58;73.78
75420;BME280;63998;52.488;13.428;2023-02-15T05:40:45;102450.81;;;2.43;74.22
75420;BME280;63998;52.488;13.428;2023-02-15T05:43:11;102445.50;;;2.40;74.42
75420;BME280;63998;52.488;13.428;2023-02-15T05:45:39;102448.47;;;2.46;75.52
75420;BME280;63998;52.488;13.428;2023-02-15T05:48:04;102437.78;;;2.53;76.51
75420;BME280;63998;52.488;13.428;2023-02-15T05:50:32;102433.41;;;2.66;77.92
75420;BME280;63998;52.488;13.428;2023-02-15T05:52:59;102430.94;;;2.67;77.51
75420;BME280;63998;52.488;13.428;2023-02-15T05:55:25;102436.19;;;2.56;76.24
75420;BME280;63998;52.488;13.428;2023-02-15T05:57:50;102431.41;;;2.62;76.96
75420;BME280;63998;52.488;13.428;2023-02-15T06:00:16;102437.91;;;2.42;76.12
75420;BME280;63998;52.488;13.428;2023-02-15T06:02:41;102435.81;;;2.49;76.41
75420;BME280;63998;52.488;13.428;2023-02-15T06:05:09;102436.69;;;2.50;76.78
75420;BME280;63998;52.488;13.428;2023-02-15T06:07:34;102441.66;;;2.47;76.43
75420;BME280;63998;52.488;13.428;2023-02-15T06:10:03;102437.06;;;2.15;75.98
75420;BME280;63998;52.488;13.428;2023-02-15T06:12:28;102440.03;;;2.08;75.95
75420;BME280;63998;52.488;13.428;2023-02-15T06:14:54;102438.06;;;2.04;77.50
75420;BME280;63998;52.488;13.428;2023-02-15T06:17:21;102429.78;;;2.08;77.38
75420;BME280;63998;52.488;13.428;2023-02-15T06:19:49;102432.81;;;2.15;77.41
75420;BME280;63998;52.488;13.428;2023-02-15T06:22:17;102437.28;;;2.05;77.09
75420;BME280;63998;52.488;13.428;2023-02-15T06:24:42;102430.06;;;1.99;76.77
75420;BME280;63998;52.488;13.428;2023-02-15T06:27:11;102431.94;;;2.15;77.80
75420;BME280;63998;52.488;13.428;2023-02-15T06:29:36;102439.84;;;1.92;76.88
75420;BME280;63998;52.488;13.428;2023-02-15T06:32:01;102435.50;;;1.91;77.36
75420;BME280;63998;52.488;13.428;2023-02-15T06:34:29;102437.66;;;2.11;78.76
75420;BME280;63998;52.488;13.428;2023-02-15T06:36:56;102424.78;;;2.37;79.61
75420;BME280;63998;52.488;13.428;2023-02-15T06:39:22;102429.78;;;2.08;78.57
75420;BME280;63998;52.488;13.428;2023-02-15T06:41:50;102433.72;;;2.03;78.01
75420;BME280;63998;52.488;13.428;2023-02-15T06:44:18;102424.25;;;2.02;78.28
75420;BME280;63998;52.488;13.428;2023-02-15T06:46:43;102426.34;;;1.81;77.48
75420;BME280;63998;52.488;13.428;2023-02-15T06:49:11;102424.69;;;1.95;77.41
75420;BME280;63998;52.488;13.428;2023-02-15T06:51:38;102426.25;;;2.06;77.95
75420;BME280;63998;52.488;13.428;2023-02-15T06:54:04;102422.50;;;2.01;77.95
75420;BME280;63998;52.488;13.428;2023-02-15T06:56:31;102431.91;;;2.28;78.67
75420;BME280;63998;52.488;13.428;2023-02-15T06:58:57;102429.78;;;2.08;77.95
75420;BME280;63998;52.488;13.428;2023-02-15T07:01:22;102429.56;;;2.31;78.33
75420;BME280;63998;52.488;13.428;2023-02-15T07:03:48;102422.09;;;2.08;77.71
75420;BME280;63998;52.488;13.428;2023-02-15T07:06:15;102420.69;;;2.13;78.02
75420;BME280;63998;52.488;13.428;2023-02-15T07:08:41;102417.09;;;2.37;78.78
75420;BME280;63998;52.488;13.428;2023-02-15T07:11:08;102417.06;;;2.50;79.39
75420;BME280;63998;52.488;13.428;2023-02-15T07:13:52;102412.13;;;2.53;77.60
75420;BME280;63998;52.488;13.428;2023-02-15T07:16:18;102413.00;;;2.54;78.47
75420;BME280;63998;52.488;13.428;2023-02-15T07:18:44;102410.34;;;2.52;77.80
75420;BME280;63998;52.488;13.428;2023-02-15T07:21:09;102416.88;;;2.47;76.91
75420;BME280;63998;52.488;13.428;2023-02-15T07:23:36;102409.84;;;2.58;77.68
75420;BME280;63998;52.488;13.428;2023-02-15T07:26:02;102405.34;;;2.41;77.82
75420;BME280;63998;52.488;13.428;2023-02-15T07:28:31;102404.34;;;2.52;77.77
75420;BME280;63998;52.488;13.428;2023-02-15T07:30:57;102402.41;;;2.63;78.55
75420;BME280;63998;52.488;13.428;2023-02-15T07:33:23;102388.34;;;2.84;79.33
75420;BME280;63998;52.488;13.428;2023-02-15T07:35:54;102388.50;;;2.87;78.75
75420;BME280;63998;52.488;13.428;2023-02-15T07:38:22;102395.25;;;3.00;78.76
75420;BME280;63998;52.488;13.428;2023-02-15T07:40:48;102388.00;;;3.07;78.66
75420;BME280;63998;52.488;13.428;2023-02-15T07:43:18;102381.44;;;3.12;77.27
75420;BME280;63998;52.488;13.428;2023-02-15T07:45:46;102381.25;;;3.09;76.87
75420;BME280;63998;52.488;13.428;2023-02-15T07:48:11;102379.84;;;3.14;76.29
75420;BME280;63998;52.488;13.428;2023-02-15T07:50:39;102384.22;;;2.73;75.45
75420;BME280;63998;52.488;13.428;2023-02-15T07:53:06;102383.03;;;2.12;75.57
75420;BME280;63998;52.488;13.428;2023-02-15T07:55:32;102381.88;;;2.07;76.70
75420;BME280;63998;52.488;13.428;2023-02-15T07:57:59;102377.53;;;2.19;78.22
75420;BME280;63998;52.488;13.428;2023-02-15T08:00:25;102372.19;;;2.16;78.30
75420;BME280;63998;52.488;13.428;2023-02-15T08:02:52;102377.72;;;2.22;78.97
75420;BME280;63998;52.488;13.428;2023-02-15T08:05:37;102369.66;;;2.44;79.09
75420;BME280;63998;52.488;13.428;2023-02-15T08:08:03;102369.06;;;2.63;79.97
75420;BME280;63998;52.488;13.428;2023-02-15T08:10:29;102368.47;;;2.67;79.69
75420;BME280;63998;52.488;13.428;2023-02-15T08:13:13;102371.09;;;2.53;78.39
75420;BME280;63998;52.488;13.428;2023-02-15T08:15:48;102373.69;;;2.40;77.77
75420;BME280;63998;52.488;13.428;2023-02-15T08:18:13;102374.31;;;2.08;77.81
75420;BME280;63998;52.488;13.428;2023-02-15T08:20:38;102372.53;;;2.07;77.89
75420;BME280;63998;52.488;13.428;2023-02-15T08:23:04;102369.66;;;2.03;78.91
75420;BME280;63998;52.488;13.428;2023-02-15T08:25:29;102381.69;;;2.04;79.25
75420;BME280;63998;52.488;13.428;2023-02-15T08:27:56;102378.34;;;2.05;79.12
75420;BME280;63998;52.488;13.428;2023-02-15T08:30:22;102367.69;;;1.99;79.41
75420;BME280;63998;52.488;13.428;2023-02-15T08:32:47;102368.91;;;1.77;79.12
75420;BME280;63998;52.488;13.428;2023-02-15T08:35:13;102379.66;;;1.59;79.48
75420;BME280;63998;52.488;13.428;2023-02-15T08:37:38;102366.56;;;1.54;80.15
75420;BME280;63998;52.488;13.428;2023-02-15T08:40:04;102362.44;;;1.69;80.59
75420;BME280;63998;52.488;13.428;2023-02-15T08:42:33;102358.72;;;2.05;81.18
75420;BME280;63998;52.488;13.428;2023-02-15T08:45:01;102361.75;;;2.13;81.10
75420;BME280;63998;52.488;13.428;2023-02-15T08:47:26;102356.63;;;2.13;80.60
75420;BME280;63998;52.488;13.428;2023-02-15T08:49:51;102345.63;;;2.01;79.99
75420;BME280;63998;52.488;13.428;2023-02-15T08:52:17;102344.78;;;2.15;80.27
75420;BME280;63998;52.488;13.428;2023-02-15T08:54:44;102344.59;;;2.12;80.10
75420;BME280;63998;52.488;13.428;2023-02-15T08:57:12;102336.28;;;2.29;80.23
75420;BME280;63998;52.488;13.428;2023-02-15T08:59:37;102339.94;;;2.47;79.79
75420;BME280;63998;52.488;13.428;2023-02-15T09:02:05;102328.19;;;2.51;79.76
75420;BME280;63998;52.488;13.428;2023-02-15T09:04:31;102329.81;;;2.64;79.28
75420;BME280;63998;52.488;13.428;2023-02-15T09:06:56;102326.09;;;2.59;78.20
75420;BME280;63998;52.488;13.428;2023-02-15T09:09:22;102324.78;;;2.80;78.75
75420;BME280;63998;52.488;13.428;2023-02-15T09:11:52;102322.13;;;2.78;78.83
75420;BME280;63998;52.488;13.428;2023-02-15T09:14:20;102316.22;;;2.94;78.48
75420;BME280;63998;52.488;13.428;2023-02-15T09:16:46;102317.72;;;3.05;77.96
75420;BME280;63998;52.488;13.428;2023-02-15T09:19:16;102319.63;;;3.39;78.46
75420;BME280;63998;52.488;13.428;2023-02-15T09:21:45;102316.09;;;3.37;76.86
75420;BME280;63998;52.488;13.428;2023-02-15T09:24:14;102327.25;;;3.22;76.29
75420;BME280;63998;52.488;13.428;2023-02-15T09:26:42;102322.66;;;3.02;76.11
75420;BME280;63998;52.488;13.428;2023-02-15T09:29:13;102329.50;;;3.16;76.81
75420;BME280;63998;52.488;13.428;2023-02-15T09:31:42;102325.06;;;2.99;76.31
75420;BME280;63998;52.488;13.428;2023-02-15T09:34:13;102326.91;;;3.31;77.35
75420;BME280;63998;52.488;13.428;2023-02-15T09:36:41;102324.44;;;3.33;77.19
75420;BME280;63998;52.488;13.428;2023-02-15T09:50:20;102329.84;;;3.68;75.87
75420;BME280;63998;52.488;13.428;2023-02-15T09:55:48;102323.56;;;3.63;74.80
75420;BME280;63998;52.488;13.428;2023-02-15T10:01:01;102323.19;;;3.72;75.22
75420;BME280;63998;52.488;13.428;2023-02-15T10:03:42;102317.84;;;3.52;73.97
75420;BME280;63998;52.488;13.428;2023-02-15T10:09:20;102320.31;;;3.51;74.56
75420;BME280;63998;52.488;13.428;2023-02-15T10:15:04;102314.97;;;3.63;74.66
75420;BME280;63998;52.488;13.428;2023-02-15T10:28:19;102294.00;;;4.85;71.65
75420;BME280;63998;52.488;13.428;2023-02-15T10:30:46;102288.38;;;4.92;71.72
75420;BME280;63998;52.488;13.428;2023-02-15T10:38:59;102269.09;;;5.55;69.69
75420;BME280;63998;52.488;13.428;2023-02-15T10:44:22;102272.72;;;5.95;70.07
75420;BME280;63998;52.488;13.428;2023-02-15T10:53:08;102262.19;;;5.73;70.81
75420;BME280;63998;52.488;13.428;2023-02-15T11:01:30;102262.03;;;5.51;69.34
75420;BME280;63998;52.488;13.428;2023-02-15T11:04:34;102261.00;;;5.47;69.47
75420;BME280;63998;52.488;13.428;2023-02-15T11:07:24;102260.28;;;5.14;69.67
75420;BME280;63998;52.488;13.428;2023-02-15T11:10:05;102260.41;;;5.35;70.04
75420;BME280;63998;52.488;13.428;2023-02-15T11:12:34;102251.38;;;5.25;69.28
75420;BME280;63998;52.488;13.428;2023-02-15T11:17:50;102246.13;;;6.16;71.22
75420;BME280;63998;52.488;13.428;2023-02-15T11:20:30;102245.81;;;6.48;68.92
75420;BME280;63998;52.488;13.428;2023-02-15T11:22:59;102237.84;;;6.83;69.69
75420;BME280;63998;52.488;13.428;2023-02-15T11:25:32;102229.13;;;6.61;66.40
75420;BME280;63998;52.488;13.428;2023-02-15T11:28:00;102227.31;;;6.58;65.88
75420;BME280;63998;52.488;13.428;2023-02-15T11:30:53;102221.16;;;6.75;67.46
75420;BME280;63998;52.488;13.428;2023-02-15T11:33:33;102220.13;;;6.93;66.47
75420;BME280;63998;52.488;13.428;2023-02-15T11:36:08;102211.84;;;6.79;64.56
75420;BME280;63998;52.488;13.428;2023-02-15T11:38:37;102208.09;;;7.14;65.76
75420;BME280;63998;52.488;13.428;2023-02-15T11:41:14;102213.38;;;7.39;64.62
75420;BME280;63998;52.488;13.428;2023-02-15T11:44:14;102207.13;;;7.56;65.21
75420;BME280;63998;52.488;13.428;2023-02-15T11:46:41;102197.59;;;7.78;63.90
75420;BME280;63998;52.488;13.428;2023-02-15T11:49:31;102191.06;;;7.87;63.68
75420;BME280;63998;52.488;13.428;2023-02-15T11:51:57;102192.38;;;8.00;62.78
75420;BME280;63998;52.488;13.428;2023-02-15T11:54:29;102188.28;;;7.83;62.33
75420;BME280;63998;52.488;13.428;2023-02-15T11:57:05;102183.81;;;8.26;63.10
75420;BME280;63998;52.488;13.428;2023-02-15T11:59:37;102184.34;;;8.42;61.69
75420;BME280;63998;52.488;13.428;2023-02-15T12:02:20;102187.31;;;8.79;61.58
75420;BME280;63998;52.488;13.428;2023-02-15T12:04:54;102191.34;;;9.23;61.53
75420;BME280;63998;52.488;13.428;2023-02-15T12:07:52;102181.09;;;9.56;60.82
75420;BME280;63998;52.488;13.428;2023-02-15T12:10:23;102182.75;;;9.84;58.54
75420;BME280;63998;52.488;13.428;2023-02-15T12:13:09;102185.84;;;10.01;57.60
75420;BME280;63998;52.488;13.428;2023-02-15T12:15:36;102180.09;;;10.13;56.88
75420;BME280;63998;52.488;13.428;2023-02-15T12:18:03;102179.13;;;10.09;56.27
75420;BME280;63998;52.488;13.428;2023-02-15T12:20:32;102171.78;;;10.24;56.01
75420;BME280;63998;52.488;13.428;2023-02-15T12:23:12;102173.81;;;10.36;55.63
75420;BME280;63998;52.488;13.428;2023-02-15T12:25:43;102171.03;;;10.63;55.90
75420;BME280;63998;52.488;13.428;2023-02-15T12:28:24;102160.72;;;11.03;54.86
75420;BME280;63998;52.488;13.428;2023-02-15T12:30:54;102159.16;;;11.49;54.85
75420;BME280;63998;52.488;13.428;2023-02-15T12:38:26;102144.28;;;12.32;50.74
75420;BME280;63998;52.488;13.428;2023-02-15T12:41:01;102130.94;;;12.15;49.82
75420;BME280;63998;52.488;13.428;2023-02-15T12:48:41;102124.34;;;12.90;48.59
75420;BME280;63998;52.488;13.428;2023-02-15T12:51:08;102130.78;;;12.56;48.47
75420;BME280;63998;52.488;13.428;2023-02-15T12:53:35;102118.63;;;12.56;48.78
75420;BME280;63998;52.488;13.428;2023-02-15T12:56:06;102122.50;;;12.83;48.41
75420;BME280;63998;52.488;13.428;2023-02-15T12:58:33;102116.16;;;13.24;47.68
75420;BME280;63998;52.488;13.428;2023-02-15T13:01:03;102110.97;;;13.27;47.20
75420;BME280;63998;52.488;13.428;2023-02-15T13:03:28;102109.38;;;13.39;47.47
75420;BME280;63998;52.488;13.428;2023-02-15T13:05:56;102101.03;;;13.67;46.50
75420;BME280;63998;52.488;13.428;2023-02-15T13:08:28;102099.81;;;14.24;45.45
75420;BME280;63998;52.488;13.428;2023-02-15T13:11:02;102093.09;;;14.44;45.13
75420;BME280;63998;52.488;13.428;2023-02-15T13:13:33;102095.19;;;15.00;43.85
75420;BME280;63998;52.488;13.428;2023-02-15T13:16:10;102089.34;;;15.59;42.21
75420;BME280;63998;52.488;13.428;2023-02-15T13:18:47;102083.25;;;15.57;42.08
75420;BME280;63998;52.488;13.428;2023-02-15T13:21:23;102072.84;;;15.96;41.33
75420;BME280;63998;52.488;13.428;2023-02-15T13:23:56;102075.47;;;15.98;41.46
75420;BME280;63998;52.488;13.428;2023-02-15T13:26:26;102068.28;;;15.34;42.33
75420;BME280;63998;52.488;13.428;2023-02-15T13:28:54;102063.81;;;15.09;42.93
75420;BME280;63998;52.488;13.428;2023-02-15T13:31:25;102062.03;;;14.99;43.43
75420;BME280;63998;52.488;13.428;2023-02-15T13:34:03;102061.59;;;14.32;44.23
75420;BME280;63998;52.488;13.428;2023-02-15T13:37:34;102056.72;;;14.84;44.29
75420;BME280;63998;52.488;13.428;2023-02-15T13:39:51;102045.69;;;15.59;42.41
75420;BME280;63998;52.488;13.428;2023-02-15T13:47:51;102043.81;;;17.19;39.16
75420;BME280;63998;52.488;13.428;2023-02-15T13:59:04;102021.97;;;17.10;39.36
75420;BME280;63998;52.488;13.428;2023-02-15T14:07:06;102038.41;;;17.47;38.21
75420;BME280;63998;52.488;13.428;2023-02-15T14:17:59;102050.81;;;17.19;38.74
75420;BME280;63998;52.488;13.428;2023-02-15T14:23:32;102048.09;;;17.40;38.86
75420;BME280;63998;52.488;13.428;2023-02-15T14:26:10;102037.19;;;18.04;37.33
75420;BME280;63998;52.488;13.428;2023-02-15T14:31:36;102019.22;;;18.52;36.56
75420;BME280;63998;52.488;13.428;2023-02-15T14:34:19;102018.53;;;19.13;35.46
75420;BME280;63998;52.488;13.428;2023-02-15T14:36:50;102018.09;;;19.43;34.72
75420;BME280;63998;52.488;13.428;2023-02-15T14:42:40;102010.41;;;19.89;33.65
75420;BME280;63998;52.488;13.428;2023-02-15T14:45:15;102010.53;;;19.17;34.33
75420;BME280;63998;52.488;13.428;2023-02-15T14:47:51;102001.75;;;19.18;34.57
75420;BME280;63998;52.488;13.428;2023-02-15T14:53:22;102016.38;;;18.72;35.65
75420;BME280;63998;52.488;13.428;2023-02-15T14:58:54;102005.94;;;19.33;34.84
75420;BME280;63998;52.488;13.428;2023-02-15T15:01:30;101997.25;;;19.28;34.86
75420;BME280;63998;52.488;13.428;2023-02-15T15:04:02;101990.09;;;19.36;34.63
75420;BME280;63998;52.488;13.428;2023-02-15T15:06:32;101999.03;;;19.26;34.81
75420;BME280;63998;52.488;13.428;2023-02-15T15:11:49;101990.44;;;19.12;35.00
75420;BME280;63998;52.488;13.428;2023-02-15T15:17:00;101985.22;;;19.07;35.22
75420;BME280;63998;52.488;13.428;2023-02-15T15:36:05;101999.44;;;20.15;33.09
75420;BME280;63998;52.488;13.428;2023-02-15T15:39:12;101998.31;;;19.78;33.72
75420;BME280;63998;52.488;13.428;2023-02-15T15:41:43;102000.28;;;18.97;34.85